createdAt,value
2023-03-06T00:01:10.523Z,62.78
2023-03-06T00:03:49.731Z,62.53
2023-03-06T00:06:18.632Z,62.23
2023-03-06T00:08:49.164Z,63.09
2023-03-06T00:11:15.917Z,62.22
2023-03-06T00:16:32.196Z,61.51
2023-03-06T00:19:02.461Z,61.78
2023-03-06T00:21:30.397Z,61.56
2023-03-06T00:23:57.034Z,61.89
2023-03-06T00:26:30.113Z,62.16
2023-03-06T00:28:57.536Z,61.48
2023-03-06T00:31:30.305Z,61.34
2023-03-06T00:34:00.604Z,61.17
2023-03-06T00:36:29.998Z,61.09
2023-03-06T00:38:57.965Z,61.69
2023-03-06T00:41:29.702Z,61.08
2023-03-06T00:43:57.762Z,60.78
2023-03-06T00:46:26.949Z,61.06
2023-03-06T00:48:56.120Z,60.96
2023-03-06T00:51:27.633Z,60.17
2023-03-06T00:53:56.902Z,60.73
2023-03-06T00:56:26.734Z,60.66
2023-03-06T00:58:58.542Z,60.72
2023-03-06T01:01:29.393Z,60.42
2023-03-06T01:03:56.033Z,60.35
2023-03-06T01:06:22.665Z,60.54
2023-03-06T01:08:52.721Z,60.54
2023-03-06T01:11:19.358Z,59.92
2023-03-06T01:13:48.982Z,60.50
2023-03-06T01:16:19.993Z,60.32
2023-03-06T01:18:50.497Z,60.12
2023-03-06T01:21:17.497Z,59.88
2023-03-06T01:23:44.281Z,60.66
2023-03-06T01:26:11.017Z,59.99
2023-03-06T01:28:41.540Z,60.46
2023-03-06T01:31:11.800Z,60.40
2023-03-06T01:33:39.146Z,60.55
2023-03-06T01:36:14.794Z,60.49
2023-03-06T01:38:46.354Z,60.69
2023-03-06T01:41:15.962Z,61.17
2023-03-06T01:43:47.272Z,60.71
2023-03-06T01:46:29.622Z,60.34
2023-03-06T01:49:28.161Z,60.52
2023-03-06T01:52:02.826Z,60.16
2023-03-06T01:54:35.266Z,59.57
2023-03-06T01:57:06.014Z,59.19
2023-03-06T01:59:38.092Z,59.90
2023-03-06T02:02:09.026Z,59.28
2023-03-06T02:04:39.803Z,59.31
2023-03-06T02:07:10.711Z,59.26
2023-03-06T02:09:38.298Z,59.52
2023-03-06T02:12:10.315Z,59.45
2023-03-06T02:14:41.586Z,59.67
2023-03-06T02:17:12.221Z,59.42
2023-03-06T02:20:12.208Z,59.86
2023-03-06T02:22:59.784Z,59.56
2023-03-06T02:25:45.680Z,59.64
2023-03-06T02:28:20.406Z,60.27
2023-03-06T02:30:49.525Z,60.49
2023-03-06T02:33:19.670Z,60.82
2023-03-06T02:35:53.458Z,60.94
2023-03-06T02:38:25.344Z,60.88
2023-03-06T02:40:55.771Z,60.96
2023-03-06T02:43:27.747Z,60.91
2023-03-06T02:46:01.837Z,61.23
2023-03-06T02:48:28.524Z,60.58
2023-03-06T02:50:55.607Z,60.78
2023-03-06T02:53:22.472Z,61.22
2023-03-06T02:55:49.620Z,60.90
2023-03-06T02:58:19.685Z,60.70
2023-03-06T03:00:48.164Z,60.83
2023-03-06T03:03:16.408Z,61.18
2023-03-06T03:05:46.269Z,60.94
2023-03-06T03:08:21.509Z,61.18
2023-03-06T03:10:51.462Z,61.02
2023-03-06T03:13:19.634Z,61.70
2023-03-06T03:16:18.537Z,61.52
2023-03-06T03:18:47.797Z,61.57
2023-03-06T03:21:17.593Z,61.23
2023-03-06T03:23:49.282Z,61.28
2023-03-06T03:26:20.952Z,61.33
2023-03-06T03:28:54.563Z,61.05
2023-03-06T03:31:21.961Z,61.28
2023-03-06T03:33:51.060Z,61.02
2023-03-06T03:36:19.144Z,61.33
2023-03-06T03:38:50.399Z,61.58
2023-03-06T03:41:22.338Z,61.50
2023-03-06T03:43:52.283Z,62.10
2023-03-06T03:46:21.583Z,62.16
2023-03-06T03:48:49.561Z,62.45
2023-03-06T03:51:17.908Z,62.96
2023-03-06T03:54:00.719Z,62.86
2023-03-06T03:56:35.381Z,63.04
2023-03-06T03:59:10.621Z,62.92
2023-03-06T04:01:48.586Z,63.38
2023-03-06T04:04:15.692Z,63.51
2023-03-06T04:06:48.587Z,63.56
2023-03-06T04:09:17.472Z,64.36
2023-03-06T04:11:44.851Z,64.11
2023-03-06T04:14:11.631Z,63.96
2023-03-06T04:16:39.033Z,63.97
2023-03-06T04:19:20.222Z,64.15
2023-03-06T04:21:52.483Z,64.62
2023-03-06T04:24:21.448Z,64.26
2023-03-06T04:26:48.485Z,64.25
2023-03-06T04:29:15.334Z,64.33
2023-03-06T04:31:48.481Z,64.29
2023-03-06T04:34:18.305Z,64.19
2023-03-06T04:36:47.935Z,64.01
2023-03-06T04:39:19.697Z,64.75
2023-03-06T04:41:50.073Z,64.52
2023-03-06T04:44:28.564Z,65.11
2023-03-06T04:49:36.457Z,65.32
2023-03-06T04:52:03.670Z,65.42
2023-03-06T04:54:33.118Z,65.05
2023-03-06T04:57:00.586Z,65.22
2023-03-06T04:59:27.192Z,65.42
2023-03-06T05:02:00.749Z,65.45
2023-03-06T05:04:29.926Z,65.45
2023-03-06T05:06:59.918Z,65.43
2023-03-06T05:09:29.761Z,65.48
2023-03-06T05:12:00.136Z,65.70
2023-03-06T05:14:30.087Z,65.57
2023-03-06T05:17:01.392Z,65.75
2023-03-06T05:19:28.041Z,65.74
2023-03-06T05:21:54.753Z,65.80
2023-03-06T05:24:25.870Z,65.95
2023-03-06T05:26:55.696Z,66.59
2023-03-06T05:29:24.708Z,66.45
2023-03-06T05:31:52.694Z,66.20
2023-03-06T05:34:22.481Z,65.89
2023-03-06T05:36:49.111Z,66.15
2023-03-06T05:39:15.762Z,65.83
2023-03-06T05:41:45.291Z,65.81
2023-03-06T05:44:12.896Z,65.69
2023-03-06T05:46:44.979Z,65.58
2023-03-06T05:49:11.744Z,65.39
2023-03-06T05:51:38.330Z,65.86
2023-03-06T05:54:05.046Z,66.00
2023-03-06T05:56:33.328Z,65.98
2023-03-06T05:59:02.256Z,66.53
2023-03-06T06:01:29.870Z,66.44
2023-03-06T06:03:56.724Z,66.73
2023-03-06T06:06:23.362Z,67.03
2023-03-06T06:08:52.405Z,67.19
2023-03-06T06:11:22.250Z,67.52
2023-03-06T06:13:50.798Z,67.42
2023-03-06T06:16:21.621Z,68.33
2023-03-06T06:18:51.419Z,68.83
2023-03-06T06:21:19.357Z,69.39
2023-03-06T06:23:46.302Z,69.38
2023-03-06T06:26:15.612Z,69.76
2023-03-06T06:28:46.478Z,70.34
2023-03-06T06:31:13.557Z,70.41
2023-03-06T06:33:42.049Z,71.06
2023-03-06T06:36:16.769Z,71.12
2023-03-06T06:38:44.142Z,71.48
2023-03-06T06:44:01.496Z,71.81
2023-03-06T06:49:23.057Z,71.08
2023-03-06T06:51:50.789Z,71.59
2023-03-06T06:54:18.748Z,71.37
2023-03-06T06:56:45.727Z,71.30
2023-03-06T06:59:17.393Z,70.91
2023-03-06T07:01:44.610Z,71.24
2023-03-06T07:04:14.804Z,71.46
2023-03-06T07:06:51.178Z,71.18
2023-03-06T07:09:21.297Z,71.16
2023-03-06T07:11:54.489Z,70.78
2023-03-06T07:14:23.396Z,70.09
2023-03-06T07:16:54.501Z,69.98
2023-03-06T07:19:26.622Z,69.90
2023-03-06T07:21:55.847Z,69.15
2023-03-06T07:24:24.652Z,69.16
2023-03-06T07:26:54.396Z,68.93
2023-03-06T07:29:23.656Z,68.43
2023-03-06T07:31:50.680Z,68.60
2023-03-06T07:34:18.426Z,67.94
2023-03-06T07:36:47.970Z,68.19
2023-03-06T07:39:18.108Z,68.54
2023-03-06T07:41:47.509Z,68.45
2023-03-06T07:44:21.385Z,68.00
2023-03-06T07:46:48.703Z,67.92
2023-03-06T07:49:17.025Z,67.54
2023-03-06T07:51:43.941Z,66.66
2023-03-06T07:54:11.481Z,66.66
2023-03-06T07:56:38.226Z,66.59
2023-03-06T07:59:08.869Z,66.58
2023-03-06T08:01:36.520Z,65.69
2023-03-06T08:04:07.461Z,65.34
2023-03-06T08:06:37.477Z,65.81
2023-03-06T08:09:08.866Z,65.51
2023-03-06T08:11:38.244Z,65.35
2023-03-06T08:14:07.454Z,64.90
2023-03-06T08:16:35.643Z,65.36
2023-03-06T08:19:07.852Z,65.41
2023-03-06T08:21:36.371Z,65.41
2023-03-06T08:24:05.790Z,65.97
2023-03-06T08:26:40.212Z,65.20
2023-03-06T08:29:10.824Z,64.77
2023-03-06T08:31:41.397Z,64.17
2023-03-06T08:34:16.275Z,63.27
2023-03-06T08:36:45.384Z,63.37
2023-03-06T08:39:14.303Z,62.71
2023-03-06T08:41:44.586Z,61.98
2023-03-06T08:44:11.736Z,62.54
2023-03-06T08:46:44.915Z,62.32
2023-03-06T08:49:17.529Z,61.74
2023-03-06T08:51:44.797Z,61.70
2023-03-06T08:54:16.416Z,61.92
2023-03-06T08:56:45.929Z,60.78
2023-03-06T08:59:16.772Z,60.70
2023-03-06T09:01:45.200Z,60.43
2023-03-06T09:04:11.958Z,60.62
2023-03-06T09:06:45.208Z,60.29
2023-03-06T09:09:14.547Z,59.90
2023-03-06T09:11:44.259Z,59.65
2023-03-06T09:14:12.172Z,59.79
2023-03-06T09:16:44.501Z,59.61
2023-03-06T09:19:13.879Z,58.80
2023-03-06T09:21:41.544Z,58.43
2023-03-06T09:24:11.397Z,58.75
2023-03-06T09:26:52.251Z,58.07
2023-03-06T09:29:21.245Z,58.74
2023-03-06T09:31:52.739Z,58.16
2023-03-06T09:34:24.765Z,58.00
2023-03-06T09:36:57.203Z,57.97
2023-03-06T09:39:29.409Z,57.67
2023-03-06T09:42:00.890Z,56.81
2023-03-06T09:44:31.777Z,57.06
2023-03-06T09:47:35.692Z,56.48
2023-03-06T09:50:20.320Z,57.17
2023-03-06T09:53:08.852Z,56.70
2023-03-06T09:55:38.149Z,56.85
2023-03-06T09:58:21.248Z,56.24
2023-03-06T10:01:03.033Z,55.96
2023-03-06T10:03:56.441Z,56.26
2023-03-06T10:06:48.395Z,55.49
2023-03-06T10:09:28.324Z,55.66
2023-03-06T10:12:00.944Z,56.07
2023-03-06T10:14:40.959Z,56.32
2023-03-06T10:17:23.485Z,55.71
2023-03-06T10:19:53.339Z,55.93
2023-03-06T10:22:37.115Z,56.06
2023-03-06T10:25:03.728Z,55.64
2023-03-06T10:27:55.593Z,55.15
2023-03-06T10:30:46.897Z,55.67
2023-03-06T10:33:56.060Z,55.29
2023-03-06T10:36:27.243Z,54.99
2023-03-06T10:38:56.141Z,55.03
2023-03-06T10:41:29.320Z,55.40
2023-03-06T10:44:07.469Z,55.21
2023-03-06T10:46:45.321Z,55.24
2023-03-06T10:49:17.317Z,55.23
2023-03-06T10:52:02.340Z,55.16
2023-03-06T10:54:32.816Z,55.41
2023-03-06T10:57:19.723Z,55.04
2023-03-06T10:59:57.874Z,55.04
2023-03-06T11:02:34.013Z,55.04
2023-03-06T11:05:04.768Z,54.91
2023-03-06T11:07:33.187Z,55.09
2023-03-06T11:09:59.946Z,55.22
2023-03-06T11:12:34.680Z,55.44
2023-03-06T11:15:18.519Z,54.97
2023-03-06T11:17:53.683Z,55.13
2023-03-06T11:20:22.145Z,55.36
2023-03-06T11:22:55.203Z,55.36
2023-03-06T11:25:56.856Z,54.76
2023-03-06T11:28:44.016Z,54.96
2023-03-06T11:31:18.238Z,54.45
2023-03-06T11:34:21.272Z,54.23
2023-03-06T11:37:18.991Z,54.38
2023-03-06T11:40:24.870Z,54.64
2023-03-06T11:43:19.969Z,55.34
2023-03-06T11:45:54.058Z,54.79
2023-03-06T11:48:38.171Z,53.46
2023-03-06T11:51:19.296Z,53.28
2023-03-06T11:53:46.057Z,52.96
2023-03-06T11:56:16.425Z,53.07
2023-03-06T11:59:12.717Z,52.96
2023-03-06T12:02:11.731Z,52.32
2023-03-06T12:04:52.966Z,51.97
2023-03-06T12:07:24.086Z,51.55
2023-03-06T12:09:53.823Z,51.54
2023-03-06T12:12:32.538Z,51.39
2023-03-06T12:15:34.679Z,51.79
2023-03-06T12:18:39.771Z,51.67
2023-03-06T12:21:38.094Z,52.63
2023-03-06T12:24:26.592Z,52.21
2023-03-06T12:27:21.693Z,52.18
2023-03-06T12:30:05.759Z,51.93
2023-03-06T12:32:41.621Z,52.04
2023-03-06T12:35:31.929Z,51.93
2023-03-06T12:38:21.742Z,51.39
2023-03-06T12:41:08.888Z,52.81
2023-03-06T12:44:08.173Z,53.09
2023-03-06T12:46:42.548Z,52.79
2023-03-06T12:49:23.014Z,52.61
2023-03-06T12:51:58.464Z,53.71
2023-03-06T12:54:28.436Z,53.79
2023-03-06T12:56:57.092Z,53.51
2023-03-06T12:59:47.427Z,53.11
2023-03-06T13:02:14.284Z,53.15
2023-03-06T13:05:00.731Z,53.04
2023-03-06T13:07:36.404Z,52.45
2023-03-06T13:10:35.514Z,52.26
2023-03-06T13:13:34.273Z,52.13
2023-03-06T13:16:13.596Z,51.86
2023-03-06T13:18:43.230Z,51.77
2023-03-06T13:21:45.213Z,51.38
2023-03-06T13:24:22.790Z,51.59
2023-03-06T13:27:02.811Z,52.09
2023-03-06T13:29:36.160Z,52.37
2023-03-06T13:32:02.939Z,51.68
2023-03-06T13:34:51.967Z,51.92
2023-03-06T13:37:27.555Z,51.57
2023-03-06T13:40:00.448Z,52.07
2023-03-06T13:42:28.819Z,51.52
2023-03-06T13:44:56.505Z,51.46
2023-03-06T13:47:50.539Z,51.66
2023-03-06T13:50:37.701Z,51.60
2023-03-06T13:53:29.450Z,52.00
2023-03-06T13:56:06.442Z,52.63
2023-03-06T13:58:44.471Z,52.44
2023-03-06T14:01:32.528Z,51.92
2023-03-06T14:04:27.229Z,52.43
2023-03-06T14:07:12.003Z,52.53
2023-03-06T14:09:42.904Z,52.31
2023-03-06T14:12:40.926Z,53.11
2023-03-06T14:15:16.574Z,52.93
2023-03-06T14:17:54.406Z,52.92
2023-03-06T14:20:21.882Z,53.27
2023-03-06T14:22:48.486Z,53.39
2023-03-06T14:25:28.234Z,53.60
2023-03-06T14:27:56.462Z,53.87
2023-03-06T14:30:27.100Z,53.73
2023-03-06T14:32:55.042Z,53.94
2023-03-06T14:35:35.538Z,53.64
2023-03-06T14:38:08.743Z,53.61
2023-03-06T14:40:41.078Z,54.10
2023-03-06T14:43:10.758Z,54.92
2023-03-06T14:45:38.765Z,54.54
2023-03-06T14:48:13.034Z,54.96
2023-03-06T14:50:43.679Z,54.86
2023-03-06T14:53:28.821Z,54.99
2023-03-06T14:56:01.411Z,55.46
2023-03-06T14:58:33.894Z,55.57
2023-03-06T15:01:09.449Z,55.57
2023-03-06T15:03:51.069Z,55.54
2023-03-06T15:06:23.526Z,55.43
2023-03-06T15:09:08.042Z,56.08
2023-03-06T15:12:04.108Z,56.65
2023-03-06T15:14:42.801Z,56.86
2023-03-06T15:17:18.540Z,57.01
2023-03-06T15:19:49.553Z,57.51
2023-03-06T15:22:34.752Z,57.70
2023-03-06T15:25:31.068Z,57.68
2023-03-06T15:28:01.932Z,58.46
2023-03-06T15:30:38.825Z,58.61
2023-03-06T15:33:24.829Z,58.69
2023-03-06T15:35:57.246Z,58.86
2023-03-06T15:38:32.075Z,60.12
2023-03-06T15:41:02.660Z,60.30
2023-03-06T15:43:39.177Z,59.74
2023-03-06T15:46:07.043Z,60.28
2023-03-06T15:48:37.506Z,61.74
2023-03-06T15:51:04.937Z,62.39
2023-03-06T15:53:35.574Z,63.51
2023-03-06T15:56:02.341Z,64.43
2023-03-06T15:58:34.726Z,64.75
2023-03-06T16:01:04.929Z,65.69
2023-03-06T16:03:33.919Z,66.55
2023-03-06T16:06:08.986Z,67.20
2023-03-06T16:08:36.821Z,67.54
2023-03-06T16:11:03.482Z,68.39
2023-03-06T16:13:32.347Z,68.79
2023-03-06T16:15:59.380Z,67.81
2023-03-06T16:18:25.986Z,67.53
2023-03-06T16:20:56.706Z,68.81
2023-03-06T16:23:23.288Z,68.84
2023-03-06T16:25:50.181Z,69.61
2023-03-06T16:28:19.637Z,69.68
2023-03-06T16:30:46.449Z,69.81
2023-03-06T16:33:13.883Z,71.02
2023-03-06T16:35:41.348Z,70.64
2023-03-06T16:38:10.341Z,70.98
2023-03-06T16:40:41.043Z,72.01
2023-03-06T16:43:10.697Z,71.63
2023-03-06T16:45:41.835Z,71.39
2023-03-06T16:48:14.616Z,72.00
2023-03-06T16:50:42.253Z,71.48
2023-03-06T16:53:08.967Z,71.59
2023-03-06T16:55:54.804Z,72.16
2023-03-06T16:58:27.821Z,73.21
2023-03-06T17:00:54.620Z,73.32
2023-03-06T17:03:21.361Z,74.19
2023-03-06T17:05:48.130Z,74.45
2023-03-06T17:08:14.789Z,74.73
2023-03-06T17:10:42.044Z,75.78
2023-03-06T17:13:10.698Z,76.17
2023-03-06T17:15:40.111Z,76.11
2023-03-06T17:18:08.281Z,75.84
2023-03-06T17:20:40.724Z,76.33
2023-03-06T17:23:09.568Z,76.98
2023-03-06T17:25:38.979Z,77.46
2023-03-06T17:28:08.945Z,77.95
2023-03-06T17:30:35.586Z,78.42
2023-03-06T17:33:02.757Z,78.61
2023-03-06T17:35:38.131Z,78.74
2023-03-06T17:38:07.872Z,78.62
2023-03-06T17:40:35.059Z,78.91
2023-03-06T17:43:05.797Z,78.92
2023-03-06T17:45:36.755Z,77.13
2023-03-06T17:48:06.025Z,77.67
2023-03-06T17:50:34.984Z,77.49
2023-03-06T17:53:07.181Z,77.73
2023-03-06T17:55:36.701Z,77.79
2023-03-06T17:58:06.130Z,78.08
2023-03-06T18:00:36.001Z,78.49
2023-03-06T18:03:02.692Z,78.28
2023-03-06T18:05:33.995Z,78.50
2023-03-06T18:08:07.017Z,79.00
2023-03-06T18:10:43.524Z,79.43
2023-03-06T18:13:11.746Z,80.15
2023-03-06T18:15:46.708Z,80.07
2023-03-06T18:18:13.430Z,79.86
2023-03-06T18:20:44.715Z,80.19
2023-03-06T18:23:15.581Z,79.97
2023-03-06T18:25:50.259Z,81.10
2023-03-06T18:28:17.016Z,81.73
2023-03-06T18:30:48.684Z,81.70
2023-03-06T18:33:17.969Z,81.02
2023-03-06T18:35:44.762Z,81.22
2023-03-06T18:38:12.959Z,82.15
2023-03-06T18:40:41.876Z,82.83
2023-03-06T18:43:09.500Z,83.72
2023-03-06T18:45:40.851Z,84.48
2023-03-06T18:48:10.685Z,84.60
2023-03-06T18:50:37.722Z,84.93
2023-03-06T18:53:08.001Z,85.91
2023-03-06T18:55:40.026Z,86.05
2023-03-06T18:58:11.883Z,86.18
2023-03-06T19:00:40.138Z,87.25
2023-03-06T19:03:06.983Z,88.00
2023-03-06T19:05:33.789Z,88.38
2023-03-06T19:08:03.303Z,88.00
2023-03-06T19:10:31.773Z,89.20
2023-03-06T19:12:59.538Z,89.61
2023-03-06T19:15:27.346Z,90.07
2023-03-06T19:17:56.472Z,90.17
2023-03-06T19:20:28.485Z,90.60
2023-03-06T19:22:55.926Z,90.94
2023-03-06T19:25:25.110Z,90.93
2023-03-06T19:27:54.673Z,91.25
2023-03-06T19:30:25.541Z,91.18
2023-03-06T19:32:53.709Z,92.12
2023-03-06T19:35:24.063Z,92.46
2023-03-06T19:37:51.067Z,92.29
2023-03-06T19:40:18.059Z,92.38
2023-03-06T19:42:44.866Z,92.31
2023-03-06T19:45:12.957Z,89.77
2023-03-06T19:47:46.805Z,89.24
2023-03-06T19:50:16.617Z,88.68
2023-03-06T19:52:43.913Z,87.25
2023-03-06T19:55:11.390Z,86.16
2023-03-06T19:57:45.336Z,85.53
2023-03-06T20:00:12.729Z,85.51
2023-03-06T20:02:46.047Z,86.09
2023-03-06T20:05:15.419Z,85.63
2023-03-06T20:07:42.042Z,85.57
2023-03-06T20:10:13.740Z,85.82
2023-03-06T20:12:40.498Z,85.71
2023-03-06T20:15:09.499Z,85.82
2023-03-06T20:17:36.285Z,85.69
2023-03-06T20:20:05.745Z,85.34
2023-03-06T20:22:32.456Z,85.66
2023-03-06T20:25:03.674Z,85.80
2023-03-06T20:27:30.519Z,85.78
2023-03-06T20:30:03.353Z,86.45
2023-03-06T20:32:33.401Z,86.08
2023-03-06T20:35:04.776Z,86.31
2023-03-06T20:37:36.603Z,85.76
2023-03-06T20:40:07.302Z,84.99
2023-03-06T20:42:34.871Z,85.13
2023-03-06T20:45:04.599Z,84.73
2023-03-06T20:47:31.870Z,85.67
2023-03-06T20:50:00.200Z,85.19
2023-03-06T20:52:28.821Z,85.29
2023-03-06T20:54:58.521Z,84.90
2023-03-06T20:57:28.192Z,84.99
2023-03-06T20:59:54.876Z,83.91
2023-03-06T21:02:23.657Z,83.86
2023-03-06T21:04:50.428Z,83.91
2023-03-06T21:07:22.113Z,83.58
2023-03-06T21:09:50.773Z,83.26
2023-03-06T21:12:17.525Z,83.46
2023-03-06T21:14:49.687Z,82.88
2023-03-06T21:17:16.373Z,83.03
2023-03-06T21:19:42.998Z,82.43
2023-03-06T21:22:24.105Z,82.67
2023-03-06T21:24:50.817Z,82.10
2023-03-06T21:27:17.567Z,82.18
2023-03-06T21:29:50.220Z,82.06
2023-03-06T21:32:20.571Z,82.04
2023-03-06T21:34:48.211Z,81.71
2023-03-06T21:37:16.517Z,81.68
2023-03-06T21:39:48.326Z,82.21
2023-03-06T21:42:16.566Z,82.03
2023-03-06T21:44:44.388Z,82.00
2023-03-06T21:47:11.063Z,82.14
2023-03-06T21:49:42.080Z,82.21
2023-03-06T21:52:11.570Z,82.36
2023-03-06T21:54:40.309Z,82.94
2023-03-06T21:57:09.095Z,82.79
2023-03-06T21:59:38.363Z,82.55
2023-03-06T22:02:05.466Z,83.12
2023-03-06T22:04:32.224Z,83.17
2023-03-06T22:06:59.982Z,83.59
2023-03-06T22:09:32.485Z,84.06
2023-03-06T22:11:59.380Z,84.11
2023-03-06T22:14:27.375Z,83.98
2023-03-06T22:17:09.016Z,84.34
2023-03-06T22:19:40.601Z,84.02
2023-03-06T22:22:10.743Z,84.49
2023-03-06T22:24:37.487Z,84.72
2023-03-06T22:27:04.393Z,84.81
2023-03-06T22:29:32.518Z,85.12
2023-03-06T22:32:00.428Z,85.30
2023-03-06T22:34:27.817Z,85.51
2023-03-06T22:36:54.825Z,85.56
2023-03-06T22:39:22.369Z,85.34
2023-03-06T22:41:49.474Z,85.75
2023-03-06T22:44:20.945Z,86.01
2023-03-06T22:46:50.391Z,85.69
2023-03-06T22:49:18.851Z,84.98
2023-03-06T22:51:49.223Z,85.06
2023-03-06T22:54:19.131Z,84.62
2023-03-06T22:56:50.364Z,84.85
2023-03-06T22:59:18.468Z,83.72
2023-03-06T23:01:48.137Z,83.53
2023-03-06T23:04:20.348Z,83.27
2023-03-06T23:06:48.004Z,82.90
2023-03-06T23:09:20.629Z,82.42
2023-03-06T23:12:08.356Z,82.10
2023-03-06T23:14:55.265Z,81.68
2023-03-06T23:17:49.338Z,81.68
2023-03-06T23:20:36.681Z,80.96
2023-03-06T23:23:23.333Z,81.13
2023-03-06T23:25:52.985Z,81.16
2023-03-06T23:28:19.711Z,81.36
2023-03-06T23:30:48.853Z,80.65
2023-03-06T23:33:18.693Z,79.67
2023-03-06T23:35:47.359Z,79.17
2023-03-06T23:38:16.953Z,79.57
2023-03-06T23:40:46.163Z,79.38
2023-03-06T23:43:15.662Z,79.64
2023-03-06T23:45:53.807Z,79.74
2023-03-06T23:48:22.778Z,79.69
2023-03-06T23:50:50.801Z,79.26
2023-03-06T23:53:18.352Z,79.05
2023-03-06T23:55:46.751Z,79.24
2023-03-06T23:58:16.309Z,79.24
